Terminal Aerodrome Forecast
Issued by NWS Sterling, VA

Current Version | Previous Version | Graphics & Text | Print | Product List | Glossary On
Versions: 1 2 3 4 5 6 7 8 9 10 11 12 13 14 15 16 17 18 19 20 21
000
FTUS41 KLWX 201500 AAA
TAFIAD
TAF AMD
KIAD 201501Z 2015/2118 33004KT P6SM BKN100 OVC200
     FM202000 VRB04KT P6SM BKN100
     FM210500 VRB03KT P6SM SCT050 BKN100=

USA.gov is the U.S. government's official web portal to all federal, state and local government web resources and services.